Tropical Cyclones
[Index]
Main Index Home Page Stock Weather Photos Extreme Storms Discussion Storm News and Storm Chasing Reports Tropical Cyclones / Hurricanes / Typhoons Weather Data and Links Wild Fires / Bushfires Weather Observation Techniques Weather Picture Catalogue Tornado Pictures and Reports Stock Video Footage and DVDs for sale
Season 1955-1956 Tropical Cyclone 195556_02 Track Map
Season 1955-1956 Summaries: [BoM-AU] [JTWC-AU] [JTWC-SIO] [JTWC-SPAC] [JTWC-SH]
<<- Previous TC | BoM 1955-1956 Season | Next TC ->>

click for intensity scale information  Lat/long Grid: Show Hide

 Date Labels: Show Hide

Bureau of Meteorology Tropical Cyclone Data

Name: 195556_02
Number: 266 / 195556_02

06 Dec 1955 23:00 UTC to 16 Dec 1955 05:00 UTC

    date/time    lat    long    hPa   cat  kts
1955-12-06 23   20.4   166.5   1006                     
1955-12-07 05   21.6   168.1   1006                     
1955-12-07 17   26.0   168.0   1005                     
1955-12-07 23   27.5   167.0   1005                     
1955-12-08 05   29.0   166.0   1005                     
1955-12-08 17   29.0   163.0   1005                     
1955-12-08 23   28.8   161.4   1004                     
1955-12-09 05   28.5   159.0   1003                     
1955-12-09 17   27.5   158.5   1003                     
1955-12-09 23   27.0   157.5   1002                     
1955-12-10 05   26.5   157.0   1001                     
1955-12-10 17   27.0   155.0   1001                     
1955-12-10 23   27.3   154.6   1002                     
1955-12-11 05   26.6   154.4   1003                     
1955-12-11 17   28.3   153.8   1004                     
1955-12-11 23   28.5   153.6   1004                     
1955-12-12 05   28.8   153.8   1005                     
1955-12-12 17   30.8   155.6   1007                     
1955-12-12 23   32.0   157.0   1007                     
1955-12-13 05   33.0   158.0   1007                     
1955-12-13 23   33.8   161.0   1005                     
1955-12-14 23   36.2   165.0   1004                     
1955-12-15 05   37.0   166.0   1003                     
1955-12-15 23   37.6   166.0   1005                     
1955-12-16 05   38.0   166.0   1009                     
Winds are 10-min average.

Tropical cyclone tracks developed by Michael Bath using data from the Bureau of Meteorology and Google Maps.


[Australian Severe Weather index] [Copyright Notice] [Email Contacts] [Search This Site] [Privacy Policy]
Document: tropical_cyclone_195556_02.htm Updated: 30 May 2013